METAR Data

Data at: 0125 UTC 16 Jan 2019

METAR for:KEWR (Newark Intl, NJ, US)
Text:KEWR 160051Z 26006KT 10SM FEW250 01/M09 A3014 RMK AO2 SLP204 T00061089
Temperature: 0.6°C ( 33°F)
Dewpoint: -8.9°C ( 16°F) [RH = 49%]
Pressure (altimeter):30.14 inches Hg (1020.7 mb) [Sea level pressure: 1020.4 mb]
Winds:from the W (260 degrees) at 7 MPH (6 knots; 3.1 m/s)
Visibility:10 or more sm (16+ km)
Ceiling:at least 12,000 feet AGL
Clouds: few clouds at 25000 feet AGL